Time;durP1;ratioP1;P1;durP2;ratioP2;P2;SDS_P1;SDS_P2;PMS_P1;PMS_P2;Temp;Humidity;BMP_temperature;BMP_pressure;BME280_temperature;BME280_humidity;BME280_pressure;Samples;Min_cycle;Max_cycle;Signal;HPM_P1;HPM_P2
2021/08/29 00:01:54;;;;;;;5.08;3.80;;;;;;;27.46;51.60;101040.70;1735492;82;21038;-49
2021/08/29 00:04:21;;;;;;;5.30;4.30;;;;;;;27.45;51.75;101033.67;1701061;84;21554;-50
2021/08/29 00:06:49;;;;;;;10.20;4.58;;;;;;;27.45;51.85;101037.69;1688489;84;21014;-49
2021/08/29 00:09:16;;;;;;;5.20;4.60;;;;;;;27.45;51.90;101037.17;1735539;81;21035;-46
2021/08/29 00:11:42;;;;;;;6.08;4.37;;;;;;;27.46;51.91;101038.88;1734077;81;21526;-49
2021/08/29 00:14:09;;;;;;;5.05;4.55;;;;;;;27.47;51.96;101031.72;1735346;81;21082;-50
2021/08/29 00:16:37;;;;;;;6.40;4.50;;;;;;;27.47;51.91;101031.72;1731975;82;21058;-49
2021/08/29 00:19:04;;;;;;;7.97;4.83;;;;;;;27.47;51.90;101026.37;1738438;81;21070;-47
2021/08/29 00:21:31;;;;;;;9.45;4.85;;;;;;;27.48;51.83;101022.70;1694991;84;20985;-47
2021/08/29 00:23:58;;;;;;;7.28;5.03;;;;;;;27.47;51.95;101027.19;1739489;81;21066;-47
2021/08/29 00:26:24;;;;;;;7.50;5.28;;;;;;;27.49;52.05;101014.56;1735472;81;22093;-48
2021/08/29 00:28:51;;;;;;;7.78;4.97;;;;;;;27.48;52.05;101002.66;1736482;81;21030;-48
2021/08/29 00:31:18;;;;;;;8.90;4.87;;;;;;;27.51;52.17;101003.73;1701488;83;21623;-50
2021/08/29 00:33:45;;;;;;;6.40;4.87;;;;;;;27.51;52.07;101001.06;1705837;83;21030;-53
2021/08/29 00:36:12;;;;;;;8.90;5.20;;;;;;;27.50;52.21;100999.35;1704903;83;21001;-49
2021/08/29 00:38:38;;;;;;;8.38;4.60;;;;;;;27.51;52.36;100999.72;1744237;82;21514;-49
2021/08/29 00:41:08;;;;;;;6.33;5.12;;;;;;;27.51;52.32;100995.71;1744629;81;21444;-48
2021/08/29 00:43:36;;;;;;;7.70;5.60;;;;;;;27.50;52.20;100987.33;1715038;82;21047;-46
2021/08/29 00:46:02;;;;;;;9.38;5.35;;;;;;;27.49;52.05;100989.66;1732404;81;21030;-48
2021/08/29 00:48:29;;;;;;;10.10;4.60;;;;;;;27.49;52.13;100991.00;1743249;81;21057;-49
2021/08/29 00:50:56;;;;;;;6.90;4.97;;;;;;;27.48;52.23;100985.28;1704801;83;21004;-47
2021/08/29 00:53:23;;;;;;;6.53;5.12;;;;;;;27.47;52.39;100992.44;1703701;83;21005;-49
2021/08/29 00:55:50;;;;;;;11.35;5.65;;;;;;;27.47;52.64;100986.27;1705717;83;21026;-47
2021/08/29 00:58:20;;;;;;;7.45;5.50;;;;;;;27.46;52.85;100985.91;1724628;82;21507;-50
2021/08/29 01:00:47;;;;;;;6.85;5.53;;;;;;;27.46;53.13;100987.24;1741708;81;20986;-49
2021/08/29 01:03:18;;;;;;;6.33;5.65;;;;;;;27.45;53.67;100985.56;1743460;81;21544;-47
2021/08/29 01:06:02;;;;;;;11.43;5.85;;;;;;;27.45;53.67;100985.56;1677030;85;21045;-49
2021/08/29 01:08:34;;;;;;;10.58;5.85;;;;;;;27.44;53.74;100979.85;1741886;82;21011;-52
2021/08/29 01:11:05;;;;;;;6.30;5.70;;;;;;;27.43;53.92;100979.52;1707496;83;21009;-47
2021/08/29 01:13:37;;;;;;;9.50;6.35;;;;;;;27.42;54.13;100979.14;1705890;83;21506;-49
2021/08/29 01:16:07;;;;;;;10.75;5.53;;;;;;;27.43;54.47;100983.00;1705664;83;21002;-47
2021/08/29 01:18:39;;;;;;;8.98;6.35;;;;;;;27.44;54.63;100979.85;1739187;81;21546;-48
2021/08/29 01:21:14;;;;;;;9.50;6.00;;;;;;;27.44;54.82;100978.52;1685838;84;21098;-49
2021/08/29 01:23:47;;;;;;;9.00;7.15;;;;;;;27.45;55.07;100978.88;1693049;84;21066;-47
2021/08/29 01:26:48;;;;;;;8.90;6.70;;;;;;;27.45;55.33;100970.87;1691956;84;21014;-49
2021/08/29 01:29:16;;;;;;;11.83;7.17;;;;;;;27.44;55.50;100965.15;1693569;84;21087;-47
2021/08/29 01:31:43;;;;;;;10.50;7.22;;;;;;;27.43;55.54;100955.45;1692590;84;21074;-48
2021/08/29 01:34:15;;;;;;;9.38;6.70;;;;;;;27.44;55.61;100947.78;1696392;84;21546;-49
2021/08/29 01:36:46;;;;;;;7.55;6.80;;;;;;;27.43;55.76;100940.76;1694225;84;21023;-50
2021/08/29 01:39:15;;;;;;;;;;;;;;;27.43;55.87;100936.75;1691711;84;21051;-48
2021/08/29 01:41:44;;;;;;;8.93;6.80;;;;;;;27.42;56.03;100940.39;1698457;84;20137;-47
2021/08/29 01:44:11;;;;;;;9.45;7.10;;;;;;;27.44;56.25;100937.09;1694776;84;21026;-47
2021/08/29 01:46:39;;;;;;;8.10;7.12;;;;;;;27.44;56.25;100937.09;1695338;84;21070;-53
2021/08/29 01:49:09;;;;;;;10.48;6.90;;;;;;;27.46;56.45;100925.28;1686302;84;21050;-49
2021/08/29 01:51:39;;;;;;;8.93;7.40;;;;;;;27.46;56.45;100925.28;1698092;84;21085;-48
2021/08/29 01:54:13;;;;;;;7.90;7.10;;;;;;;27.49;56.50;100930.86;1645448;86;21625;-49
2021/08/29 01:57:07;;;;;;;14.28;7.65;;;;;;;27.48;56.51;100926.48;1646287;86;21043;-50
2021/08/29 01:59:36;;;;;;;9.75;7.25;;;;;;;27.49;56.53;100930.38;1646550;86;21519;-48
2021/08/29 02:02:03;;;;;;;8.93;7.97;;;;;;;27.51;56.51;100934.23;1609404;88;21106;-49
2021/08/29 02:04:32;;;;;;;9.65;7.78;;;;;;;27.50;56.67;100935.20;1643633;86;21098;-47
2021/08/29 02:07:31;;;;;;;12.18;7.97;;;;;;;27.52;56.71;100933.23;1601529;88;21535;-49
2021/08/29 02:10:06;;;;;;;8.08;7.08;;;;;;;27.53;56.77;100940.29;1550952;91;21177;-47
2021/08/29 02:12:43;;;;;;;8.70;7.83;;;;;;;27.50;57.13;100932.53;1523777;94;21090;-49
2021/08/29 02:15:25;;;;;;;9.35;8.40;;;;;;;27.48;57.29;100926.48;1512437;94;21059;-48
2021/08/29 02:17:52;;;;;;;9.43;8.33;;;;;;;27.47;57.66;100928.81;1529285;92;21115;-49
2021/08/29 02:20:22;;;;;;;9.13;8.13;;;;;;;27.47;57.99;100928.81;1553323;92;21082;-49
2021/08/29 02:22:50;;;;;;;9.60;8.55;;;;;;;27.46;58.18;100921.28;1553560;92;21045;-47
2021/08/29 02:25:16;;;;;;;10.65;8.48;;;;;;;27.46;58.51;100925.77;1553314;92;21065;-47
2021/08/29 02:27:44;;;;;;;11.15;9.65;;;;;;;27.46;58.87;100924.44;1533822;92;21058;-49
2021/08/29 02:30:13;;;;;;;10.30;9.30;;;;;;;27.45;59.09;100919.57;1553198;92;21042;-48
2021/08/29 02:32:43;;;;;;;10.98;9.38;;;;;;;27.47;59.24;100922.95;1543119;91;21115;-55
2021/08/29 02:35:10;;;;;;;12.05;9.63;;;;;;;27.48;59.39;100918.46;1533763;93;21064;-49
2021/08/29 02:37:44;;;;;;;15.00;9.50;;;;;;;27.50;59.53;100921.84;1530569;93;21084;-50
2021/08/29 02:40:13;;;;;;;11.25;9.45;;;;;;;27.51;59.66;100922.21;1533268;92;21154;-50
2021/08/29 02:42:40;;;;;;;10.43;9.43;;;;;;;27.51;59.62;100926.22;1514509;93;21791;-48
2021/08/29 02:45:10;;;;;;;12.88;10.00;;;;;;;27.52;59.69;100913.19;1533459;93;21036;-49
2021/08/29 02:47:37;;;;;;;10.70;9.70;;;;;;;27.52;59.76;100910.52;1547294;92;21102;-51
2021/08/29 02:50:05;;;;;;;12.00;10.15;;;;;;;27.51;59.98;100907.51;1567040;91;21107;-49
2021/08/29 02:52:32;;;;;;;10.82;9.73;;;;;;;27.53;60.09;100913.56;1522622;93;21388;-50
2021/08/29 02:54:59;;;;;;;13.88;10.35;;;;;;;27.54;60.15;100912.56;1543100;93;21086;-49
2021/08/29 02:57:33;;;;;;;10.58;9.53;;;;;;;27.54;60.28;100912.56;1522804;93;21101;-48
2021/08/29 03:00:19;;;;;;;10.80;9.70;;;;;;;27.56;60.37;100907.92;1539129;93;21042;-49
2021/08/29 03:02:48;;;;;;;13.65;9.88;;;;;;;27.58;60.38;100905.95;1542730;93;21061;-49
2021/08/29 03:05:16;;;;;;;11.20;10.18;;;;;;;27.60;60.37;100906.66;1542722;93;21077;-48
2021/08/29 03:07:44;;;;;;;10.60;9.50;;;;;;;27.58;60.52;100903.28;1542964;93;21620;-49
2021/08/29 03:10:12;;;;;;;11.88;9.75;;;;;;;27.58;60.62;100900.61;1638089;86;21022;-54
2021/08/29 03:12:40;;;;;;;14.53;10.00;;;;;;;27.60;60.73;100901.31;1656215;86;20998;-50
2021/08/29 03:15:29;;;;;;;10.70;9.60;;;;;;;27.61;60.81;100903.02;1583097;89;21152;-52
2021/08/29 03:17:59;;;;;;;10.90;8.95;;;;;;;27.63;60.83;100906.40;1548896;91;21124;-49
2021/08/29 03:20:26;;;;;;;12.47;10.10;;;;;;;27.64;60.72;100900.05;1570867;91;21028;-49
2021/08/29 03:22:54;;;;;;;11.03;9.98;;;;;;;27.64;60.68;100894.70;1561025;91;21104;-51
2021/08/29 03:25:21;;;;;;;10.48;9.28;;;;;;;27.66;60.67;100888.24;1574886;91;21079;-48
2021/08/29 03:27:49;;;;;;;11.33;9.43;;;;;;;27.68;60.78;100889.44;1576547;91;21108;-50
2021/08/29 03:30:17;;;;;;;10.68;9.58;;;;;;;27.67;60.84;100889.95;1559026;91;21073;-50
2021/08/29 03:32:44;;;;;;;12.23;9.23;;;;;;;27.65;60.89;100889.24;1591579;88;21545;-48
2021/08/29 03:35:13;;;;;;;11.55;9.78;;;;;;;27.65;60.89;100893.73;1623217;88;21127;-49
2021/08/29 03:37:42;;;;;;;10.68;9.35;;;;;;;27.64;60.90;100894.70;1613742;88;21056;-48
2021/08/29 03:40:10;;;;;;;10.38;9.08;;;;;;;27.62;61.01;100889.50;1620168;87;21045;-48
2021/08/29 03:42:37;;;;;;;10.20;9.28;;;;;;;27.65;61.38;100875.88;1621484;88;21088;-49
2021/08/29 03:45:09;;;;;;;12.25;10.13;;;;;;;27.65;61.38;100875.88;1615932;88;21072;-50
2021/08/29 03:47:36;;;;;;;12.55;9.45;;;;;;;27.67;61.04;100873.05;1625148;88;21096;-50
2021/08/29 03:50:05;;;;;;;12.10;9.33;;;;;;;27.68;61.03;100872.05;1623774;88;21577;-50
2021/08/29 03:52:35;;;;;;;10.95;9.60;;;;;;;27.70;60.96;100864.77;1626155;88;21040;-50
2021/08/29 03:55:08;;;;;;;12.30;10.78;;;;;;;27.73;60.92;100865.81;1578097;90;21093;-48
2021/08/29 03:57:37;;;;;;;10.35;9.35;;;;;;;27.73;60.95;100868.48;1592710;90;21070;-49
2021/08/29 04:00:07;;;;;;;10.60;9.55;;;;;;;27.73;60.95;100867.15;1578829;89;21085;-52
2021/08/29 04:02:36;;;;;;;;;;;;;;;27.76;60.95;100863.69;1605705;88;21077;-48
2021/08/29 04:05:05;;;;;;;13.50;10.45;;;;;;;27.78;60.88;100863.58;1640969;86;20117;-49
2021/08/29 04:07:33;;;;;;;11.22;9.85;;;;;;;27.77;60.95;100866.73;1636463;86;21052;-51
2021/08/29 04:10:04;;;;;;;11.85;9.20;;;;;;;27.77;60.93;100877.91;1674529;84;21045;-49
2021/08/29 04:12:34;;;;;;;10.58;8.73;;;;;;;27.78;60.98;100884.45;1683230;84;21029;-48
2021/08/29 04:15:18;;;;;;;10.95;9.28;;;;;;;27.80;60.97;100874.45;1682930;84;20998;-49
2021/08/29 04:17:46;;;;;;;12.00;10.20;;;;;;;27.83;60.99;100876.86;1659264;86;21433;-48
2021/08/29 04:20:14;;;;;;;10.23;9.23;;;;;;;27.86;61.04;100883.77;1680100;85;21045;-49
2021/08/29 04:22:42;;;;;;;9.63;8.73;;;;;;;27.88;61.04;100880.46;1680352;84;20984;-48
2021/08/29 04:25:11;;;;;;;11.35;10.05;;;;;;;27.90;61.10;100879.83;1680988;84;21014;-50
2021/08/29 04:27:39;;;;;;;9.38;8.15;;;;;;;27.91;61.13;100880.16;1682873;84;21516;-49
2021/08/29 04:30:07;;;;;;;11.08;8.83;;;;;;;27.94;61.14;100878.55;1682825;84;21458;-51
2021/08/29 04:32:37;;;;;;;10.82;9.25;;;;;;;27.96;61.28;100876.62;1721947;80;21010;-50
2021/08/29 04:35:06;;;;;;;10.43;8.48;;;;;;;27.98;61.29;100869.30;1695708;83;21007;-48
2021/08/29 04:37:35;;;;;;;9.83;8.63;;;;;;;27.99;61.41;100868.30;1711110;83;21041;-50
2021/08/29 04:40:08;;;;;;;10.83;8.53;;;;;;;28.01;61.41;100868.99;1683052;85;21102;-48
2021/08/29 04:42:36;;;;;;;9.43;8.05;;;;;;;28.05;61.44;100870.40;1684647;84;21054;-54
2021/08/29 04:45:04;;;;;;;9.35;7.62;;;;;;;28.08;61.39;100872.80;1684454;85;21601;-49
2021/08/29 04:47:31;;;;;;;13.43;7.50;;;;;;;28.11;60.87;100869.83;1684462;85;21031;-51
2021/08/29 04:49:59;;;;;;;11.45;7.25;;;;;;;28.14;60.34;100861.53;1669434;84;21523;-51
2021/08/29 04:52:26;;;;;;;8.40;6.35;;;;;;;28.17;59.73;100859.41;1679252;84;21083;-50
2021/08/29 04:54:54;;;;;;;7.58;6.87;;;;;;;28.21;59.08;100859.98;1721365;82;21553;-47
2021/08/29 04:57:21;;;;;;;9.53;6.55;;;;;;;28.25;58.48;100851.16;1721390;82;21094;-49
2021/08/29 04:59:47;;;;;;;9.43;6.47;;;;;;;28.27;57.88;100852.72;1721646;82;21518;-47
2021/08/29 05:02:15;;;;;;;13.62;6.90;;;;;;;28.28;57.43;100847.70;1721131;82;21030;-49
2021/08/29 05:04:44;;;;;;;10.40;6.45;;;;;;;28.31;57.17;100846.58;1721336;82;21010;-48
2021/08/29 05:07:11;;;;;;;11.22;6.80;;;;;;;28.34;56.93;100847.64;1721307;82;21566;-49
2021/08/29 05:09:39;;;;;;;9.70;6.42;;;;;;;28.36;56.62;100852.35;1721683;83;21002;-48
2021/08/29 05:12:07;;;;;;;9.10;6.47;;;;;;;28.40;56.61;100842.52;1721575;82;21066;-53
2021/08/29 05:14:34;;;;;;;12.05;7.28;;;;;;;28.43;56.68;100840.91;1721673;82;20991;-48
2021/08/29 05:17:03;;;;;;;8.18;6.53;;;;;;;28.48;56.53;100846.66;1721610;82;21542;-49
2021/08/29 05:19:32;;;;;;;8.18;6.28;;;;;;;28.52;56.43;100845.89;1721639;82;21061;-52
2021/08/29 05:22:00;;;;;;;9.10;6.40;;;;;;;28.54;56.35;100840.72;1713319;82;21033;-50
2021/08/29 05:24:34;;;;;;;10.30;6.20;;;;;;;28.57;55.65;100837.80;1718740;82;21042;-49
2021/08/29 05:27:04;;;;;;;10.10;7.10;;;;;;;28.59;55.21;100830.45;1717875;82;21098;-48
2021/08/29 05:29:31;;;;;;;7.33;5.92;;;;;;;28.63;54.83;100823.81;1721576;82;21534;-52
2021/08/29 05:31:58;;;;;;;6.78;5.80;;;;;;;28.66;54.44;100817.33;1721357;82;20998;-50
2021/08/29 05:34:26;;;;;;;10.18;5.65;;;;;;;28.69;53.69;100815.19;1667302;84;21109;-52
2021/08/29 05:36:53;;;;;;;7.10;6.03;;;;;;;28.72;53.25;100809.55;1676917;83;21054;-50
2021/08/29 05:39:20;;;;;;;8.98;6.28;;;;;;;28.76;53.11;100806.93;1707286;83;21038;-48
2021/08/29 05:41:47;;;;;;;9.00;6.00;;;;;;;28.80;52.91;100812.82;1702162;83;21554;-48
2021/08/29 05:44:21;;;;;;;7.90;5.85;;;;;;;28.82;52.37;100817.05;1655508;84;21529;-48
2021/08/29 05:46:49;;;;;;;6.67;5.85;;;;;;;28.85;52.75;100814.05;1668867;84;20993;-50
2021/08/29 05:49:16;;;;;;;7.03;6.33;;;;;;;28.85;52.58;100817.25;1659635;84;21622;-49
2021/08/29 05:51:43;;;;;;;7.95;6.15;;;;;;;28.85;52.70;100818.59;1669790;84;21081;-51
2021/08/29 05:54:10;;;;;;;6.83;6.12;;;;;;;28.86;53.11;100817.09;1656909;84;20993;-48
2021/08/29 05:56:38;;;;;;;8.70;7.20;;;;;;;28.88;53.38;100816.45;1667246;84;21143;-51
2021/08/29 05:59:04;;;;;;;8.03;7.20;;;;;;;28.90;53.19;100816.29;1673239;84;20946;-49
2021/08/29 06:01:31;;;;;;;8.65;7.42;;;;;;;28.90;53.21;100802.41;1675491;84;21244;-52
2021/08/29 06:03:59;;;;;;;8.10;6.62;;;;;;;28.93;53.37;100812.81;1639698;86;21033;-50
2021/08/29 06:06:42;;;;;;;8.98;6.97;;;;;;;28.94;53.68;100801.12;1660445;84;21040;-48
2021/08/29 06:09:09;;;;;;;7.42;6.65;;;;;;;28.96;53.85;100795.11;1659909;84;21050;-49
2021/08/29 06:11:38;;;;;;;8.48;6.80;;;;;;;28.96;53.62;100787.08;1615151;88;21078;-50
2021/08/29 06:14:05;;;;;;;7.97;7.17;;;;;;;28.98;53.28;100785.58;1614608;88;21041;-49
2021/08/29 06:16:34;;;;;;;13.65;7.92;;;;;;;28.98;53.34;100778.39;1616274;88;21084;-49
2021/08/29 06:19:02;;;;;;;10.82;7.75;;;;;;;29.01;53.51;100771.89;1673658;84;21037;-51
2021/08/29 06:21:28;;;;;;;11.35;8.13;;;;;;;29.03;53.71;100771.73;1698450;83;21046;-48
2021/08/29 06:23:58;;;;;;;11.43;7.45;;;;;;;29.06;53.63;100768.77;1696183;83;21014;-50
2021/08/29 06:26:44;;;;;;;10.80;7.65;;;;;;;29.10;53.42;100758.09;1698887;83;21029;-51
2021/08/29 06:29:17;;;;;;;8.55;7.65;;;;;;;29.12;53.24;100749.41;1631688;86;21063;-54
2021/08/29 06:32:03;;;;;;;9.08;7.58;;;;;;;29.13;52.87;100746.56;1633949;86;21519;-47
2021/08/29 06:34:34;;;;;;;8.40;7.33;;;;;;;29.15;52.73;100753.98;1660074;84;21098;-48
2021/08/29 06:37:03;;;;;;;9.00;7.42;;;;;;;29.18;52.81;100754.19;1654405;85;21066;-48
2021/08/29 06:39:30;;;;;;;13.50;7.47;;;;;;;29.21;52.75;100756.55;1657360;85;21078;-47
2021/08/29 06:41:57;;;;;;;14.10;8.10;;;;;;;29.24;52.67;100767.83;1643745;85;21610;-47
2021/08/29 06:44:24;;;;;;;9.25;8.38;;;;;;;29.27;52.44;100772.87;1655725;85;21018;-49
2021/08/29 06:47:09;;;;;;;11.00;7.70;;;;;;;29.30;52.13;100767.70;1655318;85;20995;-49
2021/08/29 06:49:54;;;;;;;10.90;7.58;;;;;;;29.31;51.92;100751.95;1660977;85;20967;-49
2021/08/29 06:52:39;;;;;;;8.75;7.37;;;;;;;29.33;52.00;100739.23;1659736;85;21019;-50
2021/08/29 06:55:24;;;;;;;11.28;7.00;;;;;;;29.35;52.20;100730.55;1652195;85;21515;-48
2021/08/29 06:57:56;;;;;;;7.58;6.80;;;;;;;29.35;52.24;100735.41;1637702;87;20993;-50
2021/08/29 07:00:22;;;;;;;8.80;7.35;;;;;;;29.38;52.24;100723.55;1631090;87;21501;-49
2021/08/29 07:02:50;;;;;;;8.35;6.97;;;;;;;29.42;52.20;100716.88;1634431;87;21071;-50
2021/08/29 07:05:17;;;;;;;8.33;7.42;;;;;;;29.48;52.20;100726.98;1608634;89;21670;-48
2021/08/29 07:08:04;;;;;;;9.55;7.20;;;;;;;29.52;52.51;100728.36;1568667;90;21134;-48
2021/08/29 07:10:33;;;;;;;8.83;7.75;;;;;;;29.55;52.51;100726.72;1568422;90;21559;-48
2021/08/29 07:13:18;;;;;;;10.82;7.62;;;;;;;29.58;52.62;100741.14;1607386;87;21579;-50
2021/08/29 07:15:45;;;;;;;15.38;8.48;;;;;;;29.60;52.58;100741.83;1635148;87;21005;-53
2021/08/29 07:18:11;;;;;;;18.05;8.98;;;;;;;29.63;52.56;100738.84;1589389;90;21062;-50
2021/08/29 07:20:42;;;;;;;13.62;8.23;;;;;;;29.65;52.48;100736.85;1633895;87;21077;-50
2021/08/29 07:23:24;;;;;;;9.58;8.48;;;;;;;29.66;52.39;100741.20;1568923;91;21577;-50
2021/08/29 07:26:14;;;;;;;12.68;8.93;;;;;;;29.66;51.81;100743.88;1572028;91;21117;-49
2021/08/29 07:28:58;;;;;;;10.32;8.40;;;;;;;29.66;51.62;100742.54;1579828;91;21085;-49
2021/08/29 07:31:43;;;;;;;14.30;8.35;;;;;;;29.65;51.62;100750.27;1571664;91;21534;-48
2021/08/29 07:34:10;;;;;;;11.33;8.50;;;;;;;29.63;51.69;100756.28;1578198;91;21115;-51
2021/08/29 07:36:41;;;;;;;16.05;9.23;;;;;;;29.61;51.93;100756.94;1602039;88;21118;-52
2021/08/29 07:39:10;;;;;;;10.78;8.40;;;;;;;29.60;52.12;100751.21;1610553;88;21228;-50
2021/08/29 07:41:36;;;;;;;13.08;9.23;;;;;;;29.59;50.98;100744.18;1616691;88;21014;-50
2021/08/29 07:44:05;;;;;;;15.13;10.65;;;;;;;29.57;51.05;100735.45;1600045;88;21018;-47
2021/08/29 07:46:33;;;;;;;14.18;10.85;;;;;;;29.55;51.30;100723.52;1600842;88;21566;-48
2021/08/29 07:49:00;;;;;;;13.22;9.75;;;;;;;29.54;51.50;100719.16;1612851;88;21097;-50
2021/08/29 07:51:27;;;;;;;12.98;9.85;;;;;;;29.54;51.56;100725.02;1597622;88;21092;-51
2021/08/29 07:54:00;;;;;;;11.55;10.20;;;;;;;29.53;51.60;100719.33;1584197;90;21103;-47
2021/08/29 07:56:35;;;;;;;11.85;9.78;;;;;;;29.53;51.74;100728.72;1501919;93;21070;-48
2021/08/29 07:59:02;;;;;;;10.80;9.20;;;;;;;29.54;51.83;100732.57;1551239;91;21107;-48
2021/08/29 08:01:29;;;;;;;13.25;9.98;;;;;;;29.54;52.02;100725.88;1571242;91;21041;-52
2021/08/29 08:04:14;;;;;;;14.58;9.75;;;;;;;29.57;52.24;100720.70;1570733;91;21578;-49
2021/08/29 08:06:55;;;;;;;15.67;9.30;;;;;;;29.62;52.51;100731.78;1529564;94;21105;-50
2021/08/29 08:09:27;;;;;;;13.68;9.38;;;;;;;29.64;52.38;100735.16;1495322;96;21128;-47
2021/08/29 08:12:04;;;;;;;12.28;9.98;;;;;;;29.67;52.28;100732.17;1459780;98;21725;-50
2021/08/29 08:14:31;;;;;;;10.15;9.13;;;;;;;29.69;52.07;100730.17;1461811;98;21071;-50
2021/08/29 08:16:58;;;;;;;12.20;9.00;;;;;;;29.70;52.05;100730.02;1461051;98;21036;-50
2021/08/29 08:19:29;;;;;;;15.53;10.72;;;;;;;29.73;52.08;100727.55;1463171;96;21552;-50
2021/08/29 08:21:56;;;;;;;11.60;9.68;;;;;;;29.77;52.30;100733.44;1463267;98;21095;-50
2021/08/29 08:24:25;;;;;;;14.43;9.23;;;;;;;29.79;52.23;100733.63;1459264;96;21140;-49
2021/08/29 08:27:10;;;;;;;13.55;9.80;;;;;;;29.82;52.39;100729.28;1453616;98;21048;-49
2021/08/29 08:29:56;;;;;;;20.00;10.80;;;;;;;29.86;52.58;100728.00;1459096;98;21263;-49
2021/08/29 08:32:38;;;;;;;18.62;10.78;;;;;;;29.88;52.56;100723.80;1455822;97;21637;-47
2021/08/29 08:35:10;;;;;;;20.45;12.98;;;;;;;29.87;52.50;100732.34;1477999;97;21073;-49
2021/08/29 08:37:37;;;;;;;16.90;11.93;;;;;;;29.89;52.63;100741.08;1480843;96;21114;-48
2021/08/29 08:40:06;;;;;;;13.53;11.12;;;;;;;29.89;52.86;100735.71;1468956;97;21143;-48
2021/08/29 08:42:35;;;;;;;13.50;10.72;;;;;;;29.90;52.84;100733.39;1445957;98;21090;-50
2021/08/29 08:45:20;;;;;;;15.05;10.15;;;;;;;29.92;53.17;100728.70;1417607;101;21143;-48
2021/08/29 08:48:06;;;;;;;14.53;10.43;;;;;;;29.96;53.24;100732.75;1461458;95;21063;-47
2021/08/29 08:50:36;;;;;;;15.55;11.57;;;;;;;29.98;53.04;100724.05;1516107;94;21569;-51
2021/08/29 08:53:07;;;;;;;16.05;9.88;;;;;;;30.03;53.02;100727.08;1456966;97;21101;-49
2021/08/29 08:55:52;;;;;;;14.95;10.20;;;;;;;30.09;53.00;100735.83;1446887;98;21121;-52
2021/08/29 08:58:23;;;;;;;21.35;10.00;;;;;;;30.18;52.12;100731.36;1401230;101;21713;-49
2021/08/29 09:01:09;;;;;;;10.32;9.25;;;;;;;30.26;52.16;100727.38;1398746;101;21192;-50
2021/08/29 09:03:43;;;;;;;13.83;10.23;;;;;;;30.35;51.65;100728.65;1374908;103;21117;-50
2021/08/29 09:06:12;;;;;;;12.28;9.93;;;;;;;30.44;51.15;100724.98;1375172;103;21135;-50
2021/08/29 09:08:39;;;;;;;11.53;9.23;;;;;;;30.51;51.10;100721.15;1392520;102;21144;-47
2021/08/29 09:11:06;;;;;;;13.95;9.40;;;;;;;30.58;51.00;100720.86;1397624;102;21288;-45
2021/08/29 09:13:54;;;;;;;15.28;9.98;;;;;;;30.67;50.68;100724.38;1389027;102;21788;-49
2021/08/29 09:16:25;;;;;;;12.30;10.45;;;;;;;30.73;50.18;100729.95;1390295;102;21097;-48
2021/08/29 09:19:01;;;;;;;10.68;9.58;;;;;;;30.80;50.17;100723.42;1383406;102;21150;-50
2021/08/29 09:21:37;;;;;;;12.73;10.58;;;;;;;30.85;49.66;100723.83;1406703;102;21235;-49
2021/08/29 09:24:12;;;;;;;14.30;10.68;;;;;;;30.88;49.56;100723.48;1406657;102;21105;-47
2021/08/29 09:26:52;;;;;;;19.37;10.72;;;;;;;30.91;49.52;100716.45;1388145;103;21142;-49
2021/08/29 09:29:23;;;;;;;11.68;10.35;;;;;;;30.93;49.49;100716.62;1368114;104;21721;-47
2021/08/29 09:31:51;;;;;;;13.65;10.32;;;;;;;30.97;49.55;100713.95;1413077;101;21132;-47
2021/08/29 09:34:20;;;;;;;13.18;10.48;;;;;;;30.99;49.36;100705.71;1419327;99;21211;-49
2021/08/29 09:36:51;;;;;;;11.12;10.13;;;;;;;31.02;49.40;100707.56;1445358;98;21102;-48
2021/08/29 09:39:25;;;;;;;12.45;11.00;;;;;;;31.05;49.29;100703.20;1441475;99;21191;-48
2021/08/29 09:42:04;;;;;;;13.32;10.90;;;;;;;31.10;49.02;100702.69;1419927;101;21150;-49
2021/08/29 09:44:34;;;;;;;14.58;11.78;;;;;;;31.11;48.94;100693.63;1371256;103;21638;-50
2021/08/29 09:47:19;;;;;;;12.85;11.35;;;;;;;31.14;48.74;100694.66;1370867;104;21652;-50
2021/08/29 09:50:06;;;;;;;15.13;10.98;;;;;;;31.18;48.90;100696.00;1358199;104;21123;-47
2021/08/29 09:52:34;;;;;;;20.70;12.47;;;;;;;31.22;48.82;100693.31;1341609;105;21242;-49
2021/08/29 09:55:12;;;;;;;13.05;11.75;;;;;;;31.23;48.85;100694.98;1344146;106;21127;-50
2021/08/29 09:57:40;;;;;;;18.35;12.25;;;;;;;31.24;48.59;100692.64;1344682;105;21153;-52
2021/08/29 10:00:12;;;;;;;13.43;11.18;;;;;;;31.25;48.37;100688.94;1395171;99;21667;-50
2021/08/29 10:02:41;;;;;;;16.17;12.88;;;;;;;31.25;48.27;100682.21;1423435;99;21128;-50
2021/08/29 10:05:19;;;;;;;13.72;12.13;;;;;;;31.26;48.19;100683.91;1425045;99;21200;-49
2021/08/29 10:08:11;;;;;;;17.52;12.85;;;;;;;31.27;47.80;100682.88;1400003;101;21113;-49
2021/08/29 10:10:48;;;;;;;19.95;12.73;;;;;;;31.28;48.13;100689.95;1354124;105;21174;-50
2021/08/29 10:13:17;;;;;;;15.23;13.62;;;;;;;31.30;48.19;100684.72;1352772;104;21660;-51
2021/08/29 10:15:49;;;;;;;14.03;11.68;;;;;;;31.32;48.14;100689.95;1350783;104;21179;-50
2021/08/29 10:18:27;;;;;;;16.17;12.40;;;;;;;31.33;48.59;100684.90;1338889;105;21177;-51
2021/08/29 10:20:57;;;;;;;24.12;12.98;;;;;;;31.33;48.20;100678.17;1347646;101;21155;-49
2021/08/29 10:23:44;;;;;;;15.78;12.78;;;;;;;31.32;48.38;100683.23;1362409;103;21552;-50
2021/08/29 10:26:14;;;;;;;20.02;12.70;;;;;;;31.27;48.54;100680.19;1355978;104;21136;-50
2021/08/29 10:29:03;;;;;;;18.35;11.93;;;;;;;31.25;48.61;100683.55;1357991;104;21149;-49
2021/08/29 10:32:05;;;;;;;19.52;12.20;;;;;;;31.26;49.28;100687.94;1344346;105;21120;-50
2021/08/29 10:34:33;;;;;;;15.78;12.78;;;;;;;31.25;50.00;100682.21;1342528;105;21280;-51
2021/08/29 10:37:03;;;;;;;15.30;11.83;;;;;;;31.28;50.18;100679.20;1340908;106;21187;-48
2021/08/29 10:39:44;;;;;;;16.20;12.33;;;;;;;31.32;50.11;100677.86;1345868;106;21097;-51
2021/08/29 10:42:19;;;;;;;17.07;12.47;;;;;;;31.37;50.17;100680.86;1350240;105;21641;-50
2021/08/29 10:44:59;;;;;;;15.23;12.03;;;;;;;31.42;50.09;100677.21;1355952;104;21460;-49
2021/08/29 10:48:50;;;;;;;14.43;11.75;;;;;;;31.47;50.07;100673.48;1364070;103;21195;-50
2021/08/29 10:52:22;;;;;;;18.65;12.15;;;;;;;31.48;50.41;100669.81;1354791;104;21632;-50
2021/08/29 10:55:46;;;;;;;15.13;11.70;;;;;;;31.51;50.40;100670.80;1357319;104;21239;-50
2021/08/29 10:58:13;;;;;;;17.55;13.25;;;;;;;31.53;50.55;100678.19;1352021;104;21150;-48
2021/08/29 11:00:40;;;;;;;14.95;13.35;;;;;;;31.55;50.96;100674.83;1329118;104;21286;-50
2021/08/29 11:03:27;;;;;;;14.98;12.50;;;;;;;31.59;50.90;100674.85;1351449;106;21608;-48
2021/08/29 11:06:21;;;;;;;21.60;13.32;;;;;;;31.64;50.61;100663.05;1359498;100;21663;-49
2021/08/29 11:08:47;;;;;;;22.27;14.10;;;;;;;31.70;50.65;100657.48;1348078;104;21572;-48
2021/08/29 11:11:14;;;;;;;18.32;14.87;;;;;;;31.73;50.22;100653.97;1341754;105;21245;-46
2021/08/29 11:13:42;;;;;;;18.70;14.40;;;;;;;31.76;49.94;100648.23;1352838;104;21160;-48
2021/08/29 11:16:16;;;;;;;17.65;13.80;;;;;;;31.80;49.99;100658.16;1360487;102;21670;-48
2021/08/29 11:19:07;;;;;;;17.15;14.18;;;;;;;31.82;49.75;100661.00;1373929;104;21129;-47
2021/08/29 11:22:03;;;;;;;30.08;16.20;;;;;;;31.83;50.05;100661.84;1349126;106;21664;-51
2021/08/29 11:25:20;;;;;;;24.67;15.72;;;;;;;31.82;49.77;100661.00;1426678;100;21080;-50
2021/08/29 11:28:02;;;;;;;21.50;15.28;;;;;;;31.82;49.99;100659.65;1416734;100;21173;-46
2021/08/29 11:30:40;;;;;;;23.20;15.35;;;;;;;31.83;50.22;100658.66;1405650;101;21142;-45
2021/08/29 11:33:24;;;;;;;16.35;13.85;;;;;;;31.82;49.86;100656.96;1389110;102;21126;-46
2021/08/29 11:35:52;;;;;;;20.25;14.87;;;;;;;31.82;49.65;100671.76;1400527;102;21142;-50
2021/08/29 11:38:37;;;;;;;17.25;14.98;;;;;;;31.81;49.79;100682.20;1394907;102;21192;-48
2021/08/29 11:41:16;;;;;;;17.37;13.65;;;;;;;31.77;49.37;100680.87;1399947;101;21140;-48
2021/08/29 11:43:48;;;;;;;17.10;12.98;;;;;;;31.73;49.69;100687.60;1393560;100;21141;-46